Decoded Metar for KEZS ( in _UNIDENTIFIED) (IATA:N/A) | Meteo·Mobile Aviation Weather
aviador You're here:

KEZS Decoded Metar

in _UNIDENTIFIED
Report Time2019-04-20 23:55:00
UTC Time2019-04-21 00:12:02
Flight Rules vfr VFR
Wind200° at 04 kt
W.Decomp.*RWY 17: 3.4 kt HW 2.1 kt RCW
RWY 12: 0.6 kt HW 4.0 kt RCW
Visibility9999 m
Phenomena:N/A
Clouds:N/A
Expected CloudBase > 9,200 ft AGL from Temp-Dew spread
CeilingNone
Temp19°C (ISA +6)
Dew Point-4°C (21% RH)
AAT15.1°C
QNH1008 hPa
Density Alt1,709 ft
Elevation814 ft
Report Wrong Elevation
Raw Report
KEZS 202355Z AUTO 20004KT 10SM CLR 19/M04 A2977 RMK AO2 T01901039
10215 20174=

Extra information for KEZS:More info

Metar Taf Metar & Taf Last 4 Metars F.Rules Stats Wind Profile Meteogram Temp Stats Metar ALERT Operation Metar Decoded Social comments